sensor_id;sensor_type;location;lat;lon;timestamp;temperature;humidity
30037;DHT22;36325;51.512;-0.382;2022-11-20T00:01:15;6.80;99.90
30037;DHT22;36325;51.512;-0.382;2022-11-20T00:03:43;6.80;99.90
30037;DHT22;36325;51.512;-0.382;2022-11-20T00:06:13;6.80;99.90
30037;DHT22;36325;51.512;-0.382;2022-11-20T00:08:41;6.80;99.90
30037;DHT22;36325;51.512;-0.382;2022-11-20T00:11:14;6.80;99.90
30037;DHT22;36325;51.512;-0.382;2022-11-20T00:13:47;6.80;99.90
30037;DHT22;36325;51.512;-0.382;2022-11-20T00:16:17;6.80;99.90
30037;DHT22;36325;51.512;-0.382;2022-11-20T00:18:45;6.90;99.90
30037;DHT22;36325;51.512;-0.382;2022-11-20T00:21:14;6.50;99.90
30037;DHT22;36325;51.512;-0.382;2022-11-20T00:23:42;6.90;99.90
30037;DHT22;36325;51.512;-0.382;2022-11-20T00:26:13;6.90;99.90
30037;DHT22;36325;51.512;-0.382;2022-11-20T00:28:41;6.90;99.90
30037;DHT22;36325;51.512;-0.382;2022-11-20T00:31:14;6.90;99.90
30037;DHT22;36325;51.512;-0.382;2022-11-20T00:33:43;7.00;99.90
30037;DHT22;36325;51.512;-0.382;2022-11-20T00:36:19;6.90;99.90
30037;DHT22;36325;51.512;-0.382;2022-11-20T00:38:46;7.00;99.90
30037;DHT22;36325;51.512;-0.382;2022-11-20T00:41:15;7.00;99.90
30037;DHT22;36325;51.512;-0.382;2022-11-20T00:43:43;6.90;99.90
30037;DHT22;36325;51.512;-0.382;2022-11-20T00:46:15;7.00;99.90
30037;DHT22;36325;51.512;-0.382;2022-11-20T00:48:44;7.00;99.90
30037;DHT22;36325;51.512;-0.382;2022-11-20T00:51:15;7.00;99.90
30037;DHT22;36325;51.512;-0.382;2022-11-20T00:53:43;7.00;99.90
30037;DHT22;36325;51.512;-0.382;2022-11-20T00:56:15;7.10;99.90
30037;DHT22;36325;51.512;-0.382;2022-11-20T00:58:44;7.10;99.90
30037;DHT22;36325;51.512;-0.382;2022-11-20T01:01:15;9.00;99.90
30037;DHT22;36325;51.512;-0.382;2022-11-20T01:03:45;7.10;99.90
30037;DHT22;36325;51.512;-0.382;2022-11-20T01:06:15;7.20;99.90
30037;DHT22;36325;51.512;-0.382;2022-11-20T01:08:43;7.20;99.90
30037;DHT22;36325;51.512;-0.382;2022-11-20T01:11:12;7.20;99.90
30037;DHT22;36325;51.512;-0.382;2022-11-20T01:13:41;7.20;99.90
30037;DHT22;36325;51.512;-0.382;2022-11-20T01:16:11;7.20;99.90
30037;DHT22;36325;51.512;-0.382;2022-11-20T01:18:41;7.20;99.90
30037;DHT22;36325;51.512;-0.382;2022-11-20T01:21:12;7.20;99.90
30037;DHT22;36325;51.512;-0.382;2022-11-20T01:23:41;7.30;99.90
30037;DHT22;36325;51.512;-0.382;2022-11-20T01:26:13;7.30;99.90
30037;DHT22;36325;51.512;-0.382;2022-11-20T01:28:41;7.30;99.90
30037;DHT22;36325;51.512;-0.382;2022-11-20T01:31:25;7.30;99.90
30037;DHT22;36325;51.512;-0.382;2022-11-20T01:33:55;7.30;99.90
30037;DHT22;36325;51.512;-0.382;2022-11-20T01:36:24;7.30;99.90
30037;DHT22;36325;51.512;-0.382;2022-11-20T01:38:54;7.40;99.90
30037;DHT22;36325;51.512;-0.382;2022-11-20T01:41:23;7.40;99.90
30037;DHT22;36325;51.512;-0.382;2022-11-20T01:44:11;7.40;99.90
30037;DHT22;36325;51.512;-0.382;2022-11-20T01:46:39;7.40;99.90
30037;DHT22;36325;51.512;-0.382;2022-11-20T01:49:20;7.50;99.90
30037;DHT22;36325;51.512;-0.382;2022-11-20T01:52:03;7.50;99.90
30037;DHT22;36325;51.512;-0.382;2022-11-20T01:54:36;7.50;99.90
30037;DHT22;36325;51.512;-0.382;2022-11-20T01:57:06;7.50;99.90
30037;DHT22;36325;51.512;-0.382;2022-11-20T01:59:41;7.50;99.90
30037;DHT22;36325;51.512;-0.382;2022-11-20T02:02:12;7.50;99.90
30037;DHT22;36325;51.512;-0.382;2022-11-20T02:04:39;7.60;99.90
30037;DHT22;36325;51.512;-0.382;2022-11-20T02:07:06;7.60;99.90
30037;DHT22;36325;51.512;-0.382;2022-11-20T02:09:34;7.60;99.90
30037;DHT22;36325;51.512;-0.382;2022-11-20T02:12:01;7.60;99.90
30037;DHT22;36325;51.512;-0.382;2022-11-20T02:14:29;7.60;99.90
30037;DHT22;36325;51.512;-0.382;2022-11-20T02:16:57;7.70;99.90
30037;DHT22;36325;51.512;-0.382;2022-11-20T02:19:28;7.60;99.90
30037;DHT22;36325;51.512;-0.382;2022-11-20T02:22:24;7.70;99.90
30037;DHT22;36325;51.512;-0.382;2022-11-20T02:24:53;7.70;99.90
30037;DHT22;36325;51.512;-0.382;2022-11-20T02:27:21;7.60;99.90
30037;DHT22;36325;51.512;-0.382;2022-11-20T02:30:00;7.60;99.90
30037;DHT22;36325;51.512;-0.382;2022-11-20T02:32:30;7.70;99.90
30037;DHT22;36325;51.512;-0.382;2022-11-20T02:34:58;7.70;99.90
30037;DHT22;36325;51.512;-0.382;2022-11-20T02:37:35;7.70;99.90
30037;DHT22;36325;51.512;-0.382;2022-11-20T02:40:03;7.70;99.90
30037;DHT22;36325;51.512;-0.382;2022-11-20T02:42:31;7.70;99.90
30037;DHT22;36325;51.512;-0.382;2022-11-20T02:44:58;7.70;99.90
30037;DHT22;36325;51.512;-0.382;2022-11-20T02:47:25;7.70;99.90
30037;DHT22;36325;51.512;-0.382;2022-11-20T02:49:52;7.70;99.90
30037;DHT22;36325;51.512;-0.382;2022-11-20T02:52:19;7.70;99.90
30037;DHT22;36325;51.512;-0.382;2022-11-20T02:54:46;7.70;99.90
30037;DHT22;36325;51.512;-0.382;2022-11-20T02:57:13;7.70;99.90
30037;DHT22;36325;51.512;-0.382;2022-11-20T02:59:40;7.70;99.90
30037;DHT22;36325;51.512;-0.382;2022-11-20T03:02:07;7.70;99.90
30037;DHT22;36325;51.512;-0.382;2022-11-20T03:04:35;7.70;99.90
30037;DHT22;36325;51.512;-0.382;2022-11-20T03:07:02;7.70;99.90
30037;DHT22;36325;51.512;-0.382;2022-11-20T03:09:30;7.80;99.90
30037;DHT22;36325;51.512;-0.382;2022-11-20T03:11:57;7.80;99.90
30037;DHT22;36325;51.512;-0.382;2022-11-20T03:14:24;7.80;99.90
30037;DHT22;36325;51.512;-0.382;2022-11-20T03:16:52;7.80;99.90
30037;DHT22;36325;51.512;-0.382;2022-11-20T03:19:19;7.80;99.90
30037;DHT22;36325;51.512;-0.382;2022-11-20T03:21:46;7.80;99.90
30037;DHT22;36325;51.512;-0.382;2022-11-20T03:24:14;7.70;99.90
30037;DHT22;36325;51.512;-0.382;2022-11-20T03:26:41;7.70;99.90
30037;DHT22;36325;51.512;-0.382;2022-11-20T03:29:08;7.70;99.90
30037;DHT22;36325;51.512;-0.382;2022-11-20T03:31:38;7.70;99.90
30037;DHT22;36325;51.512;-0.382;2022-11-20T03:34:08;7.70;99.90
30037;DHT22;36325;51.512;-0.382;2022-11-20T03:36:38;7.70;99.90
30037;DHT22;36325;51.512;-0.382;2022-11-20T03:39:06;7.80;99.90
30037;DHT22;36325;51.512;-0.382;2022-11-20T03:41:37;7.70;99.90
30037;DHT22;36325;51.512;-0.382;2022-11-20T03:44:07;7.80;99.90
30037;DHT22;36325;51.512;-0.382;2022-11-20T03:46:35;7.70;99.90
30037;DHT22;36325;51.512;-0.382;2022-11-20T03:49:02;7.70;99.90
30037;DHT22;36325;51.512;-0.382;2022-11-20T03:51:31;7.70;99.90
30037;DHT22;36325;51.512;-0.382;2022-11-20T03:54:02;7.70;99.90
30037;DHT22;36325;51.512;-0.382;2022-11-20T03:56:31;7.70;99.90
30037;DHT22;36325;51.512;-0.382;2022-11-20T03:58:59;7.60;99.90
30037;DHT22;36325;51.512;-0.382;2022-11-20T04:01:32;7.60;99.90
30037;DHT22;36325;51.512;-0.382;2022-11-20T04:03:59;7.60;99.90
30037;DHT22;36325;51.512;-0.382;2022-11-20T04:06:29;7.60;99.90
30037;DHT22;36325;51.512;-0.382;2022-11-20T04:08:57;7.70;99.90
30037;DHT22;36325;51.512;-0.382;2022-11-20T04:11:28;7.60;99.90
30037;DHT22;36325;51.512;-0.382;2022-11-20T04:13:58;7.60;99.90
30037;DHT22;36325;51.512;-0.382;2022-11-20T04:16:28;7.60;99.90
30037;DHT22;36325;51.512;-0.382;2022-11-20T04:18:58;7.60;99.90
30037;DHT22;36325;51.512;-0.382;2022-11-20T04:21:26;7.60;99.90
30037;DHT22;36325;51.512;-0.382;2022-11-20T04:23:54;7.60;99.90
30037;DHT22;36325;51.512;-0.382;2022-11-20T04:26:23;7.60;99.90
30037;DHT22;36325;51.512;-0.382;2022-11-20T04:28:51;7.50;99.90
30037;DHT22;36325;51.512;-0.382;2022-11-20T04:31:21;7.50;99.90
30037;DHT22;36325;51.512;-0.382;2022-11-20T04:33:49;7.60;99.90
30037;DHT22;36325;51.512;-0.382;2022-11-20T04:36:21;7.60;99.90
30037;DHT22;36325;51.512;-0.382;2022-11-20T04:38:53;7.60;99.90
30037;DHT22;36325;51.512;-0.382;2022-11-20T04:41:24;7.60;99.90
30037;DHT22;36325;51.512;-0.382;2022-11-20T04:43:54;7.60;99.90
30037;DHT22;36325;51.512;-0.382;2022-11-20T04:46:27;7.60;99.90
30037;DHT22;36325;51.512;-0.382;2022-11-20T04:48:55;7.70;99.90
30037;DHT22;36325;51.512;-0.382;2022-11-20T04:51:22;7.70;99.90
30037;DHT22;36325;51.512;-0.382;2022-11-20T04:53:49;7.70;99.90
30037;DHT22;36325;51.512;-0.382;2022-11-20T04:56:17;7.80;99.90
30037;DHT22;36325;51.512;-0.382;2022-11-20T04:58:44;7.80;99.90
30037;DHT22;36325;51.512;-0.382;2022-11-20T05:01:14;7.80;99.90
30037;DHT22;36325;51.512;-0.382;2022-11-20T05:03:42;7.90;99.90
30037;DHT22;36325;51.512;-0.382;2022-11-20T05:06:15;7.90;99.90
30037;DHT22;36325;51.512;-0.382;2022-11-20T05:08:43;8.00;99.90
30037;DHT22;36325;51.512;-0.382;2022-11-20T05:11:12;8.40;99.90
30037;DHT22;36325;51.512;-0.382;2022-11-20T05:13:40;8.00;99.90
30037;DHT22;36325;51.512;-0.382;2022-11-20T05:16:12;8.00;99.90
30037;DHT22;36325;51.512;-0.382;2022-11-20T05:18:40;8.00;99.90
30037;DHT22;36325;51.512;-0.382;2022-11-20T05:21:08;8.00;99.90
30037;DHT22;36325;51.512;-0.382;2022-11-20T05:23:36;8.00;99.90
30037;DHT22;36325;51.512;-0.382;2022-11-20T05:26:05;8.00;99.90
30037;DHT22;36325;51.512;-0.382;2022-11-20T05:28:32;8.00;99.90
30037;DHT22;36325;51.512;-0.382;2022-11-20T05:31:09;8.10;99.90
30037;DHT22;36325;51.512;-0.382;2022-11-20T05:33:36;8.10;99.90
30037;DHT22;36325;51.512;-0.382;2022-11-20T05:36:04;8.10;99.90
30037;DHT22;36325;51.512;-0.382;2022-11-20T05:38:32;8.10;99.90
30037;DHT22;36325;51.512;-0.382;2022-11-20T05:41:17;8.10;99.90
30037;DHT22;36325;51.512;-0.382;2022-11-20T05:43:46;8.20;99.90
30037;DHT22;36325;51.512;-0.382;2022-11-20T05:46:16;8.20;99.90
30037;DHT22;36325;51.512;-0.382;2022-11-20T05:48:44;8.20;99.90
30037;DHT22;36325;51.512;-0.382;2022-11-20T05:51:14;8.20;99.90
30037;DHT22;36325;51.512;-0.382;2022-11-20T05:53:42;8.30;99.90
30037;DHT22;36325;51.512;-0.382;2022-11-20T05:56:16;8.30;99.90
30037;DHT22;36325;51.512;-0.382;2022-11-20T05:58:45;8.30;99.90
30037;DHT22;36325;51.512;-0.382;2022-11-20T06:01:24;8.30;99.90
30037;DHT22;36325;51.512;-0.382;2022-11-20T06:03:52;8.40;99.90
30037;DHT22;36325;51.512;-0.382;2022-11-20T06:06:20;8.40;99.90
30037;DHT22;36325;51.512;-0.382;2022-11-20T06:08:48;8.40;99.90
30037;DHT22;36325;51.512;-0.382;2022-11-20T06:11:16;8.40;99.90
30037;DHT22;36325;51.512;-0.382;2022-11-20T06:13:44;8.40;99.90
30037;DHT22;36325;51.512;-0.382;2022-11-20T06:16:14;8.40;99.90
30037;DHT22;36325;51.512;-0.382;2022-11-20T06:18:42;8.40;99.90
30037;DHT22;36325;51.512;-0.382;2022-11-20T06:21:12;8.40;99.90
30037;DHT22;36325;51.512;-0.382;2022-11-20T06:23:40;8.50;99.90
30037;DHT22;36325;51.512;-0.382;2022-11-20T06:26:10;9.10;99.90
30037;DHT22;36325;51.512;-0.382;2022-11-20T06:28:37;8.50;99.90
30037;DHT22;36325;51.512;-0.382;2022-11-20T06:31:05;8.50;99.90
30037;DHT22;36325;51.512;-0.382;2022-11-20T06:33:34;8.50;99.90
30037;DHT22;36325;51.512;-0.382;2022-11-20T06:36:01;8.60;99.90
30037;DHT22;36325;51.512;-0.382;2022-11-20T06:38:34;8.60;99.90
30037;DHT22;36325;51.512;-0.382;2022-11-20T06:41:03;8.60;99.90
30037;DHT22;36325;51.512;-0.382;2022-11-20T06:43:31;8.60;99.90
30037;DHT22;36325;51.512;-0.382;2022-11-20T06:45:59;8.60;99.90
30037;DHT22;36325;51.512;-0.382;2022-11-20T06:48:27;8.60;99.90
30037;DHT22;36325;51.512;-0.382;2022-11-20T06:50:55;8.60;99.90
30037;DHT22;36325;51.512;-0.382;2022-11-20T06:53:23;8.70;99.90
30037;DHT22;36325;51.512;-0.382;2022-11-20T06:55:51;8.70;99.90
30037;DHT22;36325;51.512;-0.382;2022-11-20T06:58:18;8.60;99.90
30037;DHT22;36325;51.512;-0.382;2022-11-20T07:00:45;8.60;99.90
30037;DHT22;36325;51.512;-0.382;2022-11-20T07:03:14;8.60;99.90
30037;DHT22;36325;51.512;-0.382;2022-11-20T07:05:41;8.60;99.90
30037;DHT22;36325;51.512;-0.382;2022-11-20T07:08:09;8.60;99.90
30037;DHT22;36325;51.512;-0.382;2022-11-20T07:10:36;8.60;99.90
30037;DHT22;36325;51.512;-0.382;2022-11-20T07:13:04;8.60;99.90
30037;DHT22;36325;51.512;-0.382;2022-11-20T07:15:31;8.60;99.90
30037;DHT22;36325;51.512;-0.382;2022-11-20T07:17:59;8.60;99.90
30037;DHT22;36325;51.512;-0.382;2022-11-20T07:20:27;8.60;99.90
30037;DHT22;36325;51.512;-0.382;2022-11-20T07:22:55;8.60;99.90
30037;DHT22;36325;51.512;-0.382;2022-11-20T07:25:27;8.60;99.90
30037;DHT22;36325;51.512;-0.382;2022-11-20T07:27:58;8.60;99.90
30037;DHT22;36325;51.512;-0.382;2022-11-20T07:30:29;8.60;99.90
30037;DHT22;36325;51.512;-0.382;2022-11-20T07:32:57;8.60;99.90
30037;DHT22;36325;51.512;-0.382;2022-11-20T07:35:25;8.60;99.90
30037;DHT22;36325;51.512;-0.382;2022-11-20T07:37:52;8.60;99.90
30037;DHT22;36325;51.512;-0.382;2022-11-20T07:40:21;8.60;99.90
30037;DHT22;36325;51.512;-0.382;2022-11-20T07:42:48;8.60;99.90
30037;DHT22;36325;51.512;-0.382;2022-11-20T07:45:20;8.60;99.90
30037;DHT22;36325;51.512;-0.382;2022-11-20T07:47:48;8.60;99.90
30037;DHT22;36325;51.512;-0.382;2022-11-20T07:50:16;8.60;99.90
30037;DHT22;36325;51.512;-0.382;2022-11-20T07:52:43;8.50;99.90
30037;DHT22;36325;51.512;-0.382;2022-11-20T07:55:11;8.50;99.90
30037;DHT22;36325;51.512;-0.382;2022-11-20T07:57:39;8.50;99.90
30037;DHT22;36325;51.512;-0.382;2022-11-20T08:00:08;8.50;99.90
30037;DHT22;36325;51.512;-0.382;2022-11-20T08:02:41;8.50;99.90
30037;DHT22;36325;51.512;-0.382;2022-11-20T08:05:10;8.50;99.90
30037;DHT22;36325;51.512;-0.382;2022-11-20T08:07:39;8.50;99.90
30037;DHT22;36325;51.512;-0.382;2022-11-20T08:10:09;8.40;99.90
30037;DHT22;36325;51.512;-0.382;2022-11-20T08:12:42;8.40;99.90
30037;DHT22;36325;51.512;-0.382;2022-11-20T08:15:30;8.40;99.90
30037;DHT22;36325;51.512;-0.382;2022-11-20T08:18:11;8.40;99.90
30037;DHT22;36325;51.512;-0.382;2022-11-20T08:23:24;8.30;99.90
30037;DHT22;36325;51.512;-0.382;2022-11-20T08:25:51;8.30;99.90
30037;DHT22;36325;51.512;-0.382;2022-11-20T08:28:18;8.30;99.90
30037;DHT22;36325;51.512;-0.382;2022-11-20T08:30:49;8.20;99.90
30037;DHT22;36325;51.512;-0.382;2022-11-20T08:33:17;8.20;99.90
30037;DHT22;36325;51.512;-0.382;2022-11-20T08:35:45;8.20;99.90
30037;DHT22;36325;51.512;-0.382;2022-11-20T08:38:12;8.20;99.90
30037;DHT22;36325;51.512;-0.382;2022-11-20T08:40:39;8.30;99.90
30037;DHT22;36325;51.512;-0.382;2022-11-20T08:43:06;8.30;99.90
30037;DHT22;36325;51.512;-0.382;2022-11-20T08:45:34;8.30;99.90
30037;DHT22;36325;51.512;-0.382;2022-11-20T08:48:02;8.40;99.90
30037;DHT22;36325;51.512;-0.382;2022-11-20T08:50:30;8.70;99.90
30037;DHT22;36325;51.512;-0.382;2022-11-20T08:53:04;8.70;99.90
30037;DHT22;36325;51.512;-0.382;2022-11-20T08:55:32;8.80;99.90
30037;DHT22;36325;51.512;-0.382;2022-11-20T08:58:06;9.10;99.90
30037;DHT22;36325;51.512;-0.382;2022-11-20T09:00:34;9.50;99.90
30037;DHT22;36325;51.512;-0.382;2022-11-20T09:03:01;9.80;99.90
30037;DHT22;36325;51.512;-0.382;2022-11-20T09:05:29;10.20;99.90
30037;DHT22;36325;51.512;-0.382;2022-11-20T09:07:57;10.50;99.90
30037;DHT22;36325;51.512;-0.382;2022-11-20T09:10:26;10.60;99.90
30037;DHT22;36325;51.512;-0.382;2022-11-20T09:12:54;10.60;99.90
30037;DHT22;36325;51.512;-0.382;2022-11-20T09:15:23;10.80;99.90
30037;DHT22;36325;51.512;-0.382;2022-11-20T09:17:52;10.80;99.90
30037;DHT22;36325;51.512;-0.382;2022-11-20T09:20:20;10.70;99.90
30037;DHT22;36325;51.512;-0.382;2022-11-20T09:22:48;10.50;99.90
30037;DHT22;36325;51.512;-0.382;2022-11-20T09:25:15;10.20;99.90
30037;DHT22;36325;51.512;-0.382;2022-11-20T09:27:42;10.00;99.90
30037;DHT22;36325;51.512;-0.382;2022-11-20T09:30:13;9.90;99.90
30037;DHT22;36325;51.512;-0.382;2022-11-20T09:32:40;10.10;99.90
30037;DHT22;36325;51.512;-0.382;2022-11-20T09:35:08;10.40;99.90
30037;DHT22;36325;51.512;-0.382;2022-11-20T09:37:36;10.70;99.90
30037;DHT22;36325;51.512;-0.382;2022-11-20T09:40:03;11.00;99.90
30037;DHT22;36325;51.512;-0.382;2022-11-20T09:42:52;11.20;99.90
30037;DHT22;36325;51.512;-0.382;2022-11-20T09:51:09;11.10;99.90
30037;DHT22;36325;51.512;-0.382;2022-11-20T09:56:30;11.40;99.90
30037;DHT22;36325;51.512;-0.382;2022-11-20T09:59:02;11.70;99.90
30037;DHT22;36325;51.512;-0.382;2022-11-20T10:01:34;11.70;99.90
30037;DHT22;36325;51.512;-0.382;2022-11-20T10:04:18;11.90;99.90
30037;DHT22;36325;51.512;-0.382;2022-11-20T10:07:07;12.80;99.90
30037;DHT22;36325;51.512;-0.382;2022-11-20T10:09:59;12.80;99.90
30037;DHT22;36325;51.512;-0.382;2022-11-20T10:29:47;15.00;99.90
30037;DHT22;36325;51.512;-0.382;2022-11-20T10:32:25;15.30;99.90
30037;DHT22;36325;51.512;-0.382;2022-11-20T10:37:27;15.80;99.90
30037;DHT22;36325;51.512;-0.382;2022-11-20T10:43:03;16.00;99.90
30037;DHT22;36325;51.512;-0.382;2022-11-20T10:45:45;16.30;99.90
30037;DHT22;36325;51.512;-0.382;2022-11-20T10:48:22;16.50;99.90
30037;DHT22;36325;51.512;-0.382;2022-11-20T10:53:55;16.80;99.90
30037;DHT22;36325;51.512;-0.382;2022-11-20T11:01:29;17.50;99.90
30037;DHT22;36325;51.512;-0.382;2022-11-20T11:03:57;17.80;99.90
30037;DHT22;36325;51.512;-0.382;2022-11-20T11:06:34;18.10;99.90
30037;DHT22;36325;51.512;-0.382;2022-11-20T11:09:13;18.30;99.90
30037;DHT22;36325;51.512;-0.382;2022-11-20T11:11:42;18.60;99.90
30037;DHT22;36325;51.512;-0.382;2022-11-20T11:14:14;18.80;99.90
30037;DHT22;36325;51.512;-0.382;2022-11-20T11:16:56;19.10;99.90
30037;DHT22;36325;51.512;-0.382;2022-11-20T11:19:23;19.20;99.90
30037;DHT22;36325;51.512;-0.382;2022-11-20T11:21:55;19.20;99.90
30037;DHT22;36325;51.512;-0.382;2022-11-20T11:24:28;19.50;99.90
30037;DHT22;36325;51.512;-0.382;2022-11-20T11:27:13;19.80;99.90
30037;DHT22;36325;51.512;-0.382;2022-11-20T11:29:44;20.20;99.90
30037;DHT22;36325;51.512;-0.382;2022-11-20T11:32:20;20.10;99.90
30037;DHT22;36325;51.512;-0.382;2022-11-20T11:35:02;20.00;99.90
30037;DHT22;36325;51.512;-0.382;2022-11-20T11:37:37;20.40;99.90
30037;DHT22;36325;51.512;-0.382;2022-11-20T11:40:09;20.60;99.90
30037;DHT22;36325;51.512;-0.382;2022-11-20T11:42:56;20.90;99.90
30037;DHT22;36325;51.512;-0.382;2022-11-20T11:45:25;20.90;99.90
30037;DHT22;36325;51.512;-0.382;2022-11-20T11:47:56;20.90;99.90
30037;DHT22;36325;51.512;-0.382;2022-11-20T11:50:29;20.80;99.90
30037;DHT22;36325;51.512;-0.382;2022-11-20T11:53:09;21.00;99.90
30037;DHT22;36325;51.512;-0.382;2022-11-20T12:01:20;21.50;99.90
30037;DHT22;36325;51.512;-0.382;2022-11-20T12:04:24;21.50;99.90
30037;DHT22;36325;51.512;-0.382;2022-11-20T12:07:20;21.40;99.90
30037;DHT22;36325;51.512;-0.382;2022-11-20T12:10:22;21.20;99.90
30037;DHT22;36325;51.512;-0.382;2022-11-20T12:13:15;20.90;99.90
30037;DHT22;36325;51.512;-0.382;2022-11-20T12:15:47;21.10;99.90
30037;DHT22;36325;51.512;-0.382;2022-11-20T12:18:20;21.10;99.90
30037;DHT22;36325;51.512;-0.382;2022-11-20T12:54:04;22.60;99.90
30037;DHT22;36325;51.512;-0.382;2022-11-20T13:00:22;22.20;99.90
30037;DHT22;36325;51.512;-0.382;2022-11-20T13:08:24;21.40;99.90
30037;DHT22;36325;51.512;-0.382;2022-11-20T13:16:48;20.20;99.90
30037;DHT22;36325;51.512;-0.382;2022-11-20T13:19:18;19.20;99.90
30037;DHT22;36325;51.512;-0.382;2022-11-20T13:21:47;18.30;99.90
30037;DHT22;36325;51.512;-0.382;2022-11-20T13:24:22;17.40;99.90
30037;DHT22;36325;51.512;-0.382;2022-11-20T13:29:44;16.00;99.90
30037;DHT22;36325;51.512;-0.382;2022-11-20T13:32:17;15.80;99.90
30037;DHT22;36325;51.512;-0.382;2022-11-20T13:34:53;15.30;99.90
30037;DHT22;36325;51.512;-0.382;2022-11-20T13:37:39;15.30;99.90
30037;DHT22;36325;51.512;-0.382;2022-11-20T13:45:30;15.50;99.90
30037;DHT22;36325;51.512;-0.382;2022-11-20T13:48:03;15.10;99.90
30037;DHT22;36325;51.512;-0.382;2022-11-20T13:56:09;14.00;99.90
30037;DHT22;36325;51.512;-0.382;2022-11-20T14:01:21;13.30;99.90
30037;DHT22;36325;51.512;-0.382;2022-11-20T14:03:48;13.30;99.90
30037;DHT22;36325;51.512;-0.382;2022-11-20T14:06:46;13.20;99.90
30037;DHT22;36325;51.512;-0.382;2022-11-20T14:09:26;13.00;99.90
30037;DHT22;36325;51.512;-0.382;2022-11-20T14:11:54;12.90;99.90
30037;DHT22;36325;51.512;-0.382;2022-11-20T14:14:23;12.90;99.90
30037;DHT22;36325;51.512;-0.382;2022-11-20T14:16:53;12.90;99.90
30037;DHT22;36325;51.512;-0.382;2022-11-20T14:21:53;13.10;99.90
30037;DHT22;36325;51.512;-0.382;2022-11-20T14:24:23;13.10;99.90
30037;DHT22;36325;51.512;-0.382;2022-11-20T14:26:51;13.00;99.90
30037;DHT22;36325;51.512;-0.382;2022-11-20T14:29:29;12.90;99.90
30037;DHT22;36325;51.512;-0.382;2022-11-20T14:32:01;12.80;99.90
30037;DHT22;36325;51.512;-0.382;2022-11-20T14:34:31;12.80;99.90
30037;DHT22;36325;51.512;-0.382;2022-11-20T14:37:03;12.70;99.90
30037;DHT22;36325;51.512;-0.382;2022-11-20T14:39:46;12.70;99.90
30037;DHT22;36325;51.512;-0.382;2022-11-20T14:42:16;12.60;99.90
30037;DHT22;36325;51.512;-0.382;2022-11-20T14:44:44;12.50;99.90
30037;DHT22;36325;51.512;-0.382;2022-11-20T14:47:13;12.40;99.90
30037;DHT22;36325;51.512;-0.382;2022-11-20T14:49:42;12.30;99.90
30037;DHT22;36325;51.512;-0.382;2022-11-20T14:52:14;12.30;99.90
30037;DHT22;36325;51.512;-0.382;2022-11-20T14:54:48;12.20;99.90
30037;DHT22;36325;51.512;-0.382;2022-11-20T14:57:25;12.10;99.90
30037;DHT22;36325;51.512;-0.382;2022-11-20T15:02:44;12.00;99.90
30037;DHT22;36325;51.512;-0.382;2022-11-20T15:05:11;11.90;99.90
30037;DHT22;36325;51.512;-0.382;2022-11-20T15:07:42;12.00;99.90
30037;DHT22;36325;51.512;-0.382;2022-11-20T15:12:55;12.30;99.90
30037;DHT22;36325;51.512;-0.382;2022-11-20T15:15:51;12.90;99.90
30037;DHT22;36325;51.512;-0.382;2022-11-20T15:18:22;13.20;99.90
30037;DHT22;36325;51.512;-0.382;2022-11-20T15:20:50;13.40;99.90
30037;DHT22;36325;51.512;-0.382;2022-11-20T15:23:18;13.50;99.90
30037;DHT22;36325;51.512;-0.382;2022-11-20T15:25:47;13.50;99.90
30037;DHT22;36325;51.512;-0.382;2022-11-20T15:28:21;13.40;99.90
30037;DHT22;36325;51.512;-0.382;2022-11-20T15:30:49;13.40;99.90
30037;DHT22;36325;51.512;-0.382;2022-11-20T15:33:18;13.60;99.90
30037;DHT22;36325;51.512;-0.382;2022-11-20T15:35:46;13.60;99.90
30037;DHT22;36325;51.512;-0.382;2022-11-20T15:38:13;13.60;99.90
30037;DHT22;36325;51.512;-0.382;2022-11-20T15:40:40;13.40;99.90
30037;DHT22;36325;51.512;-0.382;2022-11-20T15:43:08;13.10;99.90
30037;DHT22;36325;51.512;-0.382;2022-11-20T15:45:42;12.90;99.90
30037;DHT22;36325;51.512;-0.382;2022-11-20T15:48:20;12.60;99.90
30037;DHT22;36325;51.512;-0.382;2022-11-20T15:53:23;12.30;99.90
30037;DHT22;36325;51.512;-0.382;2022-11-20T15:55:50;12.10;99.90
30037;DHT22;36325;51.512;-0.382;2022-11-20T15:58:17;12.00;99.90
30037;DHT22;36325;51.512;-0.382;2022-11-20T16:00:45;11.90;99.90
30037;DHT22;36325;51.512;-0.382;2022-11-20T16:03:13;11.70;99.90
30037;DHT22;36325;51.512;-0.382;2022-11-20T16:05:41;11.60;99.90
30037;DHT22;36325;51.512;-0.382;2022-11-20T16:08:08;11.40;99.90
30037;DHT22;36325;51.512;-0.382;2022-11-20T16:10:37;11.20;99.90
30037;DHT22;36325;51.512;-0.382;2022-11-20T16:13:13;11.10;99.90
30037;DHT22;36325;51.512;-0.382;2022-11-20T16:16:01;11.10;99.90
30037;DHT22;36325;51.512;-0.382;2022-11-20T16:18:29;11.00;99.90
30037;DHT22;36325;51.512;-0.382;2022-11-20T16:20:56;10.80;99.90
30037;DHT22;36325;51.512;-0.382;2022-11-20T16:23:23;10.80;99.90
30037;DHT22;36325;51.512;-0.382;2022-11-20T16:25:51;10.70;99.90
30037;DHT22;36325;51.512;-0.382;2022-11-20T16:28:18;10.60;99.90
30037;DHT22;36325;51.512;-0.382;2022-11-20T16:30:46;10.50;99.90
30037;DHT22;36325;51.512;-0.382;2022-11-20T16:33:16;10.30;99.90
30037;DHT22;36325;51.512;-0.382;2022-11-20T16:35:48;10.30;99.90
30037;DHT22;36325;51.512;-0.382;2022-11-20T16:40:43;10.10;99.90
30037;DHT22;36325;51.512;-0.382;2022-11-20T16:43:12;10.00;99.90
30037;DHT22;36325;51.512;-0.382;2022-11-20T16:45:42;10.00;99.90
30037;DHT22;36325;51.512;-0.382;2022-11-20T16:48:14;10.00;99.90
30037;DHT22;36325;51.512;-0.382;2022-11-20T16:50:51;10.00;99.90
30037;DHT22;36325;51.512;-0.382;2022-11-20T16:53:20;10.00;99.90
30037;DHT22;36325;51.512;-0.382;2022-11-20T16:55:48;10.10;99.90
30037;DHT22;36325;51.512;-0.382;2022-11-20T16:58:15;10.00;99.90
30037;DHT22;36325;51.512;-0.382;2022-11-20T17:00:43;10.10;99.90
30037;DHT22;36325;51.512;-0.382;2022-11-20T17:03:17;10.10;99.90
30037;DHT22;36325;51.512;-0.382;2022-11-20T17:05:44;10.10;99.90
30037;DHT22;36325;51.512;-0.382;2022-11-20T17:08:12;10.00;99.90
30037;DHT22;36325;51.512;-0.382;2022-11-20T17:10:39;10.00;99.90
30037;DHT22;36325;51.512;-0.382;2022-11-20T17:13:06;10.00;99.90
30037;DHT22;36325;51.512;-0.382;2022-11-20T17:15:33;9.80;99.90
30037;DHT22;36325;51.512;-0.382;2022-11-20T17:18:00;9.80;99.90
30037;DHT22;36325;51.512;-0.382;2022-11-20T17:20:29;9.60;99.90
30037;DHT22;36325;51.512;-0.382;2022-11-20T17:22:58;9.60;99.90
30037;DHT22;36325;51.512;-0.382;2022-11-20T17:25:25;9.50;99.90
30037;DHT22;36325;51.512;-0.382;2022-11-20T17:27:53;9.50;99.90
30037;DHT22;36325;51.512;-0.382;2022-11-20T17:30:20;9.40;99.90
30037;DHT22;36325;51.512;-0.382;2022-11-20T17:32:47;9.30;99.90
30037;DHT22;36325;51.512;-0.382;2022-11-20T17:35:14;9.30;99.90
30037;DHT22;36325;51.512;-0.382;2022-11-20T17:37:42;9.20;99.90
30037;DHT22;36325;51.512;-0.382;2022-11-20T17:40:09;9.10;99.90
30037;DHT22;36325;51.512;-0.382;2022-11-20T17:42:36;9.10;99.90
30037;DHT22;36325;51.512;-0.382;2022-11-20T17:45:04;9.00;99.90
30037;DHT22;36325;51.512;-0.382;2022-11-20T17:47:33;9.00;99.90
30037;DHT22;36325;51.512;-0.382;2022-11-20T17:50:00;8.90;99.90
30037;DHT22;36325;51.512;-0.382;2022-11-20T17:52:28;8.80;99.90